createdAt,value
2023-04-30T00:01:45.416Z,8.43
2023-04-30T00:04:31.375Z,8.43
2023-04-30T00:06:59.313Z,8.47
2023-04-30T00:12:10.419Z,8.31
2023-04-30T00:14:46.627Z,8.36
2023-04-30T00:17:17.301Z,8.51
2023-04-30T00:19:49.895Z,8.41
2023-04-30T00:22:17.346Z,8.40
2023-04-30T00:24:49.223Z,8.16
2023-04-30T00:29:59.873Z,8.30
2023-04-30T00:32:44.228Z,8.29
2023-04-30T00:37:59.182Z,8.26
2023-04-30T00:43:20.577Z,8.06
2023-04-30T00:45:53.631Z,8.02
2023-04-30T00:48:34.095Z,8.07
2023-04-30T00:51:06.362Z,8.07
2023-04-30T00:53:37.150Z,8.10
2023-04-30T00:56:13.212Z,7.90
2023-04-30T00:58:58.540Z,7.83
2023-04-30T01:01:29.168Z,7.85
2023-04-30T01:04:17.212Z,7.92
2023-04-30T01:06:48.728Z,7.97
2023-04-30T01:09:36.747Z,7.93
2023-04-30T01:12:18.068Z,7.97
2023-04-30T01:20:37.322Z,7.99
2023-04-30T01:23:32.867Z,7.94
2023-04-30T01:26:34.814Z,7.99
2023-04-30T01:29:13.686Z,7.96
2023-04-30T01:31:53.719Z,7.96
2023-04-30T01:34:23.518Z,7.90
2023-04-30T01:37:17.919Z,7.92
2023-04-30T01:40:31.164Z,7.85
2023-04-30T01:43:32.900Z,7.81
2023-04-30T01:54:35.201Z,7.44
2023-04-30T01:57:13.745Z,7.50
2023-04-30T01:59:43.982Z,7.48
2023-04-30T02:02:26.805Z,7.41
2023-04-30T02:04:59.000Z,7.40
2023-04-30T02:07:54.723Z,7.35
2023-04-30T02:10:39.851Z,7.48
2023-04-30T02:13:20.785Z,7.51
2023-04-30T02:15:49.087Z,7.40
2023-04-30T02:18:18.277Z,7.48
2023-04-30T02:20:49.988Z,7.52
2023-04-30T02:23:26.004Z,7.54
2023-04-30T02:28:57.247Z,7.38
2023-04-30T02:32:04.666Z,7.30
2023-04-30T02:34:33.742Z,7.36
2023-04-30T02:37:01.112Z,7.28
2023-04-30T02:39:37.175Z,7.21
2023-04-30T02:42:15.404Z,7.15
2023-04-30T02:44:46.510Z,7.11
2023-04-30T02:47:28.873Z,7.01
2023-04-30T02:50:08.656Z,7.03
2023-04-30T02:52:38.878Z,6.90
2023-04-30T02:57:50.360Z,6.90
2023-04-30T03:03:02.840Z,6.86
2023-04-30T03:08:16.100Z,6.69
2023-04-30T03:10:48.902Z,6.71
2023-04-30T03:13:31.312Z,6.65
2023-04-30T03:18:51.014Z,6.66
2023-04-30T03:21:23.228Z,6.65
2023-04-30T03:23:54.220Z,6.57
2023-04-30T03:26:40.840Z,6.65
2023-04-30T03:29:08.333Z,6.57
2023-04-30T03:34:24.192Z,6.34
2023-04-30T03:37:05.624Z,6.29
2023-04-30T03:45:12.786Z,6.24
2023-04-30T03:47:52.126Z,6.26
2023-04-30T03:50:21.562Z,6.25
2023-04-30T03:55:43.459Z,6.21
2023-04-30T04:00:57.083Z,6.07
2023-04-30T04:06:06.375Z,6.07
2023-04-30T04:08:38.272Z,6.14
2023-04-30T04:11:06.662Z,6.01
2023-04-30T04:16:22.461Z,5.95
2023-04-30T04:18:50.660Z,5.89
2023-04-30T04:21:29.338Z,5.77
2023-04-30T04:26:46.619Z,5.87
2023-04-30T04:29:18.605Z,5.76
2023-04-30T04:31:53.341Z,5.95
2023-04-30T04:37:02.727Z,5.95
2023-04-30T04:47:57.771Z,6.01
2023-04-30T04:53:09.031Z,6.05
2023-04-30T04:55:55.940Z,6.05
2023-04-30T04:58:38.657Z,6.18
2023-04-30T05:01:06.130Z,6.29
2023-04-30T05:06:22.609Z,6.31
2023-04-30T05:17:13.978Z,6.65
2023-04-30T05:19:40.573Z,6.80
2023-04-30T05:24:51.600Z,7.05
2023-04-30T05:27:27.826Z,7.23
2023-04-30T05:29:54.912Z,7.34
2023-04-30T05:35:10.683Z,7.47
2023-04-30T05:37:39.924Z,7.56
2023-04-30T05:40:11.806Z,7.72
2023-04-30T05:42:43.035Z,7.89
2023-04-30T05:45:14.546Z,8.12
2023-04-30T05:47:43.839Z,8.22
2023-04-30T05:50:12.656Z,8.27
2023-04-30T05:52:41.178Z,8.45
2023-04-30T05:55:09.924Z,8.44
2023-04-30T05:57:39.034Z,8.50
2023-04-30T06:00:13.643Z,8.60
2023-04-30T06:02:49.506Z,8.75
2023-04-30T06:05:22.348Z,8.78
2023-04-30T06:08:00.892Z,8.89
2023-04-30T06:10:33.927Z,8.98
2023-04-30T06:13:10.452Z,9.08
2023-04-30T06:16:07.386Z,9.13
2023-04-30T06:18:36.749Z,9.24
2023-04-30T06:21:18.159Z,9.37
2023-04-30T06:24:08.020Z,9.53
2023-04-30T06:27:00.975Z,9.54
2023-04-30T06:34:07.008Z,9.70
2023-04-30T06:39:40.577Z,10.09
2023-04-30T06:42:13.322Z,10.16
2023-04-30T06:47:30.311Z,10.43
2023-04-30T06:52:54.234Z,10.56
2023-04-30T06:55:36.408Z,10.64
2023-04-30T06:58:28.207Z,10.81
2023-04-30T07:01:32.041Z,10.92
2023-04-30T07:04:10.263Z,11.24
2023-04-30T07:09:37.519Z,11.53
2023-04-30T07:12:06.722Z,11.53
2023-04-30T07:14:34.748Z,11.53
2023-04-30T07:17:11.042Z,11.60
2023-04-30T07:25:10.398Z,11.91
2023-04-30T07:33:13.729Z,12.47
2023-04-30T07:35:46.425Z,12.76
2023-04-30T07:38:13.304Z,12.89
2023-04-30T07:40:40.116Z,12.97
2023-04-30T07:46:54.775Z,13.41
2023-04-30T07:52:11.353Z,14.63
2023-04-30T07:54:39.040Z,15.90
2023-04-30T07:57:06.624Z,16.07
2023-04-30T07:59:33.375Z,16.36
2023-04-30T08:02:00.263Z,16.59
2023-04-30T08:04:27.106Z,16.53
2023-04-30T08:06:54.795Z,15.25
2023-04-30T08:09:21.600Z,15.96
2023-04-30T08:11:48.336Z,15.59
2023-04-30T08:14:15.026Z,16.18
2023-04-30T08:16:43.084Z,16.31
2023-04-30T08:19:09.685Z,17.37
2023-04-30T08:21:36.596Z,17.48
2023-04-30T08:24:03.444Z,16.49
2023-04-30T08:26:32.315Z,16.77
2023-04-30T08:29:01.954Z,17.48
2023-04-30T08:31:28.876Z,18.23
2023-04-30T08:33:55.571Z,17.52
2023-04-30T08:36:25.248Z,17.65
2023-04-30T08:38:53.072Z,17.85
2023-04-30T08:41:24.248Z,18.71
2023-04-30T08:43:53.010Z,18.34
2023-04-30T08:46:25.365Z,18.43
2023-04-30T08:48:52.307Z,17.40
2023-04-30T08:51:19.747Z,18.58
2023-04-30T08:53:47.947Z,18.52
2023-04-30T08:56:15.798Z,18.37
2023-04-30T08:58:44.103Z,18.87
2023-04-30T09:01:11.416Z,18.20
2023-04-30T09:03:38.449Z,18.85
2023-04-30T09:06:05.305Z,17.58
2023-04-30T09:09:12.303Z,18.72
2023-04-30T09:11:39.044Z,19.03
2023-04-30T09:14:05.883Z,20.02
2023-04-30T09:16:46.656Z,19.42
2023-04-30T09:19:30.958Z,19.33
2023-04-30T09:21:58.162Z,19.54
2023-04-30T09:24:25.163Z,18.80
2023-04-30T09:26:53.702Z,20.77
2023-04-30T09:29:20.568Z,20.08
2023-04-30T09:34:36.115Z,21.08
2023-04-30T09:37:04.315Z,20.97
2023-04-30T09:39:32.728Z,18.84
2023-04-30T09:42:12.509Z,18.82
2023-04-30T09:44:46.400Z,18.14
2023-04-30T09:47:15.980Z,20.19
2023-04-30T09:49:44.578Z,20.52
2023-04-30T09:52:11.925Z,20.94
2023-04-30T09:54:38.860Z,21.03
2023-04-30T09:57:05.852Z,22.02
2023-04-30T09:59:39.501Z,22.32
2023-04-30T10:02:09.508Z,21.72
2023-04-30T10:04:39.342Z,19.09
2023-04-30T10:07:15.413Z,18.89
2023-04-30T10:09:51.346Z,17.89
2023-04-30T10:12:24.956Z,17.87
2023-04-30T10:15:16.552Z,19.01
2023-04-30T10:17:47.843Z,19.78
2023-04-30T10:20:23.442Z,20.26
2023-04-30T10:22:59.245Z,19.66
2023-04-30T10:25:29.425Z,19.13
2023-04-30T10:27:58.915Z,17.98
2023-04-30T10:30:26.352Z,18.12
2023-04-30T10:32:56.034Z,18.77
2023-04-30T10:35:28.931Z,18.84
2023-04-30T10:38:08.992Z,20.56
2023-04-30T10:40:37.418Z,22.41
2023-04-30T10:43:07.193Z,22.16
2023-04-30T10:46:07.778Z,21.16
2023-04-30T13:02:29.414Z,20.49
2023-04-30T17:58:41.221Z,18.29
2023-04-30T18:01:08.139Z,18.19
2023-04-30T18:03:36.680Z,18.13
2023-04-30T18:06:04.230Z,18.10
2023-04-30T18:08:31.261Z,17.78
2023-04-30T18:10:58.473Z,17.76
2023-04-30T18:13:27.587Z,17.81
2023-04-30T18:15:54.615Z,17.50
2023-04-30T18:18:22.155Z,17.40
2023-04-30T18:20:49.694Z,17.40
2023-04-30T18:23:17.013Z,17.07
2023-04-30T18:25:43.984Z,17.10
2023-04-30T18:28:11.073Z,16.90
2023-04-30T18:30:38.659Z,16.97
2023-04-30T18:33:06.104Z,16.99
2023-04-30T18:35:34.373Z,16.76
2023-04-30T18:38:02.069Z,16.73
2023-04-30T18:40:28.836Z,16.56
2023-04-30T18:42:57.104Z,16.62
2023-04-30T18:45:24.360Z,16.42
2023-04-30T18:47:51.378Z,16.29
2023-04-30T18:50:19.895Z,16.20
2023-04-30T18:52:46.941Z,16.28
2023-04-30T18:55:15.587Z,16.22
2023-04-30T18:57:43.489Z,16.20
2023-04-30T19:00:12.486Z,16.17
2023-04-30T19:02:39.624Z,16.24
2023-04-30T19:05:06.875Z,16.11
2023-04-30T19:07:34.103Z,16.11
2023-04-30T19:10:02.468Z,15.97
2023-04-30T19:12:30.288Z,15.87
2023-04-30T19:14:57.579Z,15.83
2023-04-30T19:17:24.593Z,15.66
2023-04-30T19:19:51.597Z,15.67
2023-04-30T19:22:19.412Z,15.73
2023-04-30T19:24:46.395Z,15.59
2023-04-30T19:27:13.548Z,15.45
2023-04-30T19:29:40.604Z,15.36
2023-04-30T19:32:07.686Z,15.42
2023-04-30T19:34:34.774Z,15.40
2023-04-30T19:37:01.986Z,15.29
2023-04-30T19:39:36.812Z,15.39
2023-04-30T19:42:04.643Z,15.19
2023-04-30T19:44:31.591Z,14.99
2023-04-30T19:46:58.613Z,14.99
2023-04-30T19:49:26.553Z,15.09
2023-04-30T19:51:54.177Z,14.87
2023-04-30T19:54:21.515Z,14.84
2023-04-30T19:56:53.075Z,14.84
2023-04-30T19:59:20.403Z,14.75
2023-04-30T20:01:48.822Z,14.63
2023-04-30T20:04:17.629Z,14.52
2023-04-30T20:06:45.366Z,14.49
2023-04-30T20:09:12.260Z,14.49
2023-04-30T20:11:39.326Z,14.43
2023-04-30T20:14:06.219Z,14.37
2023-04-30T20:16:33.215Z,14.34
2023-04-30T20:19:00.134Z,14.34
2023-04-30T20:21:28.052Z,14.37
2023-04-30T20:23:54.878Z,14.26
2023-04-30T20:26:22.057Z,14.16
2023-04-30T20:28:48.907Z,14.17
2023-04-30T20:31:15.899Z,14.17
2023-04-30T20:33:42.980Z,14.06
2023-04-30T20:36:09.862Z,13.98
2023-04-30T20:38:36.930Z,14.08
2023-04-30T20:41:03.895Z,14.12
2023-04-30T20:43:30.720Z,14.02
2023-04-30T20:46:00.752Z,13.99
2023-04-30T20:48:27.681Z,13.92
2023-04-30T20:50:54.673Z,13.86
2023-04-30T20:53:21.468Z,13.96
2023-04-30T20:55:48.450Z,13.89
2023-04-30T20:58:15.266Z,13.88
2023-04-30T21:00:42.104Z,13.88
2023-04-30T21:03:09.814Z,13.85
2023-04-30T21:05:36.934Z,13.91
2023-04-30T21:08:03.811Z,13.78
2023-04-30T21:10:36.835Z,13.84
2023-04-30T21:13:05.713Z,13.88
2023-04-30T21:15:36.467Z,13.75
2023-04-30T21:18:03.877Z,13.68
2023-04-30T21:20:32.057Z,13.64
2023-04-30T21:22:59.081Z,13.65
2023-04-30T21:25:26.196Z,13.65
2023-04-30T21:27:53.008Z,13.62
2023-04-30T21:30:23.005Z,13.58
2023-04-30T21:32:58.405Z,13.59
2023-04-30T21:35:27.981Z,13.67
2023-04-30T21:37:54.907Z,13.54
2023-04-30T21:40:21.904Z,13.57
2023-04-30T21:42:48.681Z,13.55
2023-04-30T21:45:16.154Z,13.53
2023-04-30T21:47:44.807Z,13.53
2023-04-30T21:50:12.678Z,13.51
2023-04-30T21:52:41.036Z,13.50
2023-04-30T21:55:08.776Z,13.57
2023-04-30T21:57:35.872Z,13.48
2023-04-30T22:00:04.861Z,13.54
2023-04-30T22:02:33.127Z,13.46
2023-04-30T22:05:00.136Z,13.55
2023-04-30T22:07:27.524Z,13.41
2023-04-30T22:09:54.625Z,13.37
2023-04-30T22:12:25.149Z,13.31
2023-04-30T22:14:55.583Z,13.30
2023-04-30T22:17:22.922Z,13.28
2023-04-30T22:19:49.825Z,13.31
2023-04-30T22:22:16.975Z,13.30
2023-04-30T22:24:43.936Z,13.33
2023-04-30T22:27:10.795Z,13.36
2023-04-30T22:29:37.616Z,13.38
2023-04-30T22:32:05.381Z,13.37
2023-04-30T22:34:38.344Z,13.31
2023-04-30T22:37:06.372Z,13.37
2023-04-30T22:39:33.849Z,13.31
2023-04-30T22:42:01.000Z,13.33
2023-04-30T22:44:28.926Z,13.22
2023-04-30T22:46:58.177Z,13.23
2023-04-30T22:49:31.225Z,13.24
2023-04-30T22:51:59.221Z,13.34
2023-04-30T22:54:26.211Z,13.27
2023-04-30T22:56:53.089Z,13.31
2023-04-30T22:59:19.898Z,13.17
2023-04-30T23:01:47.166Z,13.07
2023-04-30T23:04:14.014Z,13.13
2023-04-30T23:06:41.697Z,13.16
2023-04-30T23:09:08.689Z,13.15
2023-04-30T23:11:35.890Z,13.07
2023-04-30T23:14:02.854Z,13.09
2023-04-30T23:16:29.840Z,13.07
2023-04-30T23:18:56.961Z,13.03
2023-04-30T23:21:24.103Z,13.12
2023-04-30T23:23:50.952Z,13.19
2023-04-30T23:26:17.846Z,13.19
2023-04-30T23:28:44.698Z,13.13
2023-04-30T23:31:11.612Z,13.19
2023-04-30T23:33:38.538Z,13.19
2023-04-30T23:36:05.749Z,13.23
2023-04-30T23:38:32.594Z,13.24
2023-04-30T23:40:59.647Z,13.20
2023-04-30T23:43:26.586Z,13.19
2023-04-30T23:45:53.636Z,13.22
2023-04-30T23:48:20.465Z,13.20
2023-04-30T23:50:47.567Z,13.30
2023-04-30T23:53:17.328Z,13.20
2023-04-30T23:55:44.243Z,13.27
